DW2047 Weather Reports


Display with metric or nautical units.
time (UTC)temp
F
wind
direction
speed
MPH
gust
MPH
rain 1hr
in
rain 24hr
in
rain mn
in
humidity
%
barometer
mb
20220525074003 61 46 5.0 0.0 0.00 0.00 0.37 95 1007.4
20220525073506 61 126 4.0 0.0 0.00 0.00 0.36 95 1010.3
20220525073015 61 128 4.0 0.0 0.00 0.00 0.35 95 1011.0
20220525072505 61 119 4.0 0.0 0.00 0.00 0.34 95 1011.2
20220525072008 61 134 4.0 0.0 0.00 0.00 0.33 95 1011.1
20220525071513 61 153 5.0 0.0 0.00 0.00 0.32 95 1011.2
20220525071106 61 144 6.0 0.0 0.00 0.00 0.32 95 1011.3
20220525070508 61 140 7.0 0.0 0.00 0.00 0.30 95 1010.8
20220525070009 61 138 5.0 0.0 0.00 0.00 0.30 94 1011.0
20220525065514 61 167 4.0 0.0 0.00 0.00 0.28 94 1011.3
20220525065010 61 176 4.0 0.0 0.00 0.00 0.28 94 1011.1
20220525064506 61 152 2.0 0.0 0.00 0.00 0.27 94 1010.8
20220525064017 61 151 2.0 0.0 0.00 0.00 0.27 94 1010.2
20220525063606 61 146 2.0 0.0 0.00 0.00 0.26 94 1010.3
20220525063017 61 158 2.0 0.0 0.00 0.00 0.25 94 1010.3
20220525062514 61 57 1.0 0.0 0.00 0.00 0.24 94 1010.2
20220525062004 61 348 1.0 0.0 0.00 0.00 0.22 94 1010.1
20220525061556 61 348 1.0 0.0 0.00 0.00 0.21 94 1010.2
20220525061059 61 340 1.0 0.0 0.00 0.00 0.18 94 1010.2
20220525060508 61 340 1.0 0.0 0.00 0.00 0.17 93 1010.5
20220525060014 61 340 1.0 0.0 0.00 0.00 0.15 94 1010.6
20220525055603 61 340 1.0 0.0 0.00 0.00 0.12 94 1010.7
20220525055004 61 340 3.0 0.0 0.00 0.00 0.10 94 1010.3
20220525054509 61 349 3.0 0.0 0.00 0.00 0.08 94 1010.2
20220525054017 61 340 3.0 0.0 0.00 0.00 0.07 94 1010.2
20220525053521 61 346 2.0 0.0 0.00 0.00 0.06 94 1010.6
20220525053006 61 344 3.0 0.0 0.00 0.00 0.05 94 1010.5
20220525052512 61 340 3.0 0.0 0.00 0.00 0.04 94 1010.2
20220525052009 61 355 5.0 0.0 0.00 0.00 0.03 93 1009.9
20220525051601 61 355 5.0 0.0 0.00 0.00 0.02 93 1009.5
20220525051004 61 307 6.0 0.0 0.00 0.00 0.02 93 1009.5
20220525050513 61 309 6.0 0.0 0.00 0.00 0.01 93 1009.7
20220525050010 61 288 6.0 0.0 0.00 0.00 0.62 93 1009.8
20220525045517 61 326 6.0 0.0 0.00 0.00 0.60 93 1009.8
20220525045106 61 307 7.0 0.0 0.00 0.00 0.59 93 1010.3
20220525044511 61 289 8.0 0.0 0.00 0.00 0.56 92 1010.6
20220525044009 62 302 9.0 0.0 0.00 0.00 0.51 92 1011.1
20220525043602 62 245 10.0 0.0 0.00 0.00 0.41 92 1011.5
20220525043105 63 277 9.0 0.0 0.00 0.00 0.36 93 1010.9
20220525042505 62 286 4.0 0.0 0.00 0.00 0.34 93 1010.4
20220525042101 62 291 2.0 0.0 0.00 0.00 0.34 92 1010.0
20220525041506 62 347 2.0 0.0 0.00 0.00 0.34 92 1008.3
20220525041058 62 355 2.0 0.0 0.00 0.00 0.34 92 1007.8
20220525040502 61 319 2.0 0.0 0.00 0.00 0.34 92 1007.7
20220525040003 61 337 3.0 0.0 0.00 0.00 0.33 91 1007.9
20220525035502 62 325 2.0 0.0 0.00 0.00 0.33 91 1008.3
20220525035010 62 342 2.0 0.0 0.00 0.00 0.33 90 1007.9
20220525034515 62 342 2.0 0.0 0.00 0.00 0.33 90 1007.8
20220525034101 62 350 2.0 0.0 0.00 0.00 0.33 89 1008.0
20220525033504 62 340 3.0 0.0 0.00 0.00 0.33 89 1007.8
20220525033010 62 315 3.0 0.0 0.00 0.00 0.33 88 1008.5
20220525032602 63 342 3.0 0.0 0.00 0.00 0.31 87 1008.0
20220525032006 63 311 5.0 0.0 0.00 0.00 0.12 85 1009.0
20220525031510 64 309 4.0 0.0 0.00 0.00 0.02 82 1008.4
20220525031105 65 340 5.0 0.0 0.00 0.00 0.01 79 1008.0
20220525030551 66 333 7.0 0.0 0.00 0.00 0.00 74 1007.5
20220525030050 67 286 10.0 0.0 0.00 0.00 0.00 73 1008.6
20220525025552 69 293 10.0 0.0 0.00 0.00 0.00 68 1008.3
20220525025051 74 290 7.0 0.0 0.00 0.00 0.00 61 1007.3
20220525024555 78 303 3.0 0.0 0.00 0.00 0.00 57 1007.1
20220525024058 79 355 1.0 0.0 0.00 0.00 0.00 62 1006.0
20220525023511 80 61 1.0 0.0 0.00 0.00 0.00 61 1005.4
20220525023015 80 121 2.0 0.0 0.00 0.00 0.00 61 1005.4
20220525022522 80 110 2.0 0.0 0.00 0.00 0.00 61 1005.2
20220525022020 80 97 2.0 0.0 0.00 0.00 0.00 61 1005.5
20220525021534 80 139 3.0 0.0 0.00 0.00 0.00 61 1005.3
20220525021017 80 140 2.0 0.0 0.00 0.00 0.00 61 1005.2
20220525020601 80 132 2.0 0.0 0.00 0.00 0.00 61 1005.1
20220525020002 80 123 2.0 0.0 0.00 0.00 0.00 61 1005.2
20220525015506 80 132 2.0 0.0 0.00 0.00 0.00 61 1005.1
20220525015057 80 59 2.0 0.0 0.00 0.00 0.00 62 1004.9
20220525014502 80 124 2.0 0.0 0.00 0.00 0.00 61 1005.0
20220525014005 81 142 2.0 0.0 0.00 0.00 0.00 61 1005.1
20220525013558 81 101 2.0 0.0 0.00 0.00 0.00 61 1005.0
20220525013106 81 124 3.0 0.0 0.00 0.00 0.00 60 1005.1
20220525012555 81 136 3.0 0.0 0.00 0.00 0.00 60 1005.1
20220525012101 81 132 3.0 0.0 0.00 0.00 0.00 60 1005.1
20220525011502 81 137 4.0 0.0 0.00 0.00 0.00 60 1005.2
20220525011058 81 122 4.0 0.0 0.00 0.00 0.00 60 1005.1
20220525010604 81 134 3.0 0.0 0.00 0.00 0.00 59 1005.0
20220525010103 81 108 3.0 0.0 0.00 0.00 0.00 59 1004.9
20220525005542 82 132 4.0 0.0 0.00 0.00 0.00 58 1004.7
20220525005045 82 137 4.0 0.0 0.00 0.00 0.00 58 1004.7
20220525004555 82 146 4.0 0.0 0.00 0.00 0.00 58 1004.6
20220525004057 82 149 6.0 0.0 0.00 0.00 0.00 58 1004.6
20220525003610 82 142 7.0 0.0 0.00 0.00 0.00 58 1004.4
20220525003015 82 155 6.0 0.0 0.00 0.00 0.00 58 1004.2
20220525002510 82 132 6.0 0.0 0.00 0.00 0.00 58 1004.3
20220525002012 82 152 8.0 0.0 0.00 0.00 0.00 58 1004.1
20220525001609 82 180 9.0 0.0 0.00 0.00 0.00 58 1003.9
20220525001004 82 127 10.0 0.0 0.00 0.00 0.00 57 1003.6
20220525000505 82 170 9.0 0.0 0.00 0.00 0.00 57 1003.3
20220525000005 83 156 7.0 0.0 0.00 0.00 0.00 57 1003.1
20220524235508 83 155 8.0 0.0 0.00 0.00 0.00 57 1003.0
20220524235014 83 136 8.0 0.0 0.00 0.00 0.00 57 1003.1
20220524234516 83 147 6.0 0.0 0.00 0.00 0.00 57 1003.4
20220524234005 83 140 7.0 0.0 0.00 0.00 0.00 56 1003.3
20220524233511 83 140 7.0 0.0 0.00 0.00 0.00 56 1003.2
20220524233033 82 180 9.0 0.0 0.00 0.00 0.00 57 1003.2
20220524232604 83 151 8.0 0.0 0.00 0.00 0.00 56 1003.4
20220524232004 83 136 7.0 0.0 0.00 0.00 0.00 56 1003.6
20220524231508 83 136 7.0 0.0 0.00 0.00 0.00 56 1003.7
20220524231101 83 133 7.0 0.0 0.00 0.00 0.00 56 1003.6
20220524230502 83 182 7.0 0.0 0.00 0.00 0.00 55 1003.5
20220524230014 83 222 7.0 0.0 0.00 0.00 0.00 55 1003.5
20220524225554 83 156 7.0 0.0 0.00 0.00 0.00 55 1003.6
20220524225101 83 184 7.0 0.0 0.00 0.00 0.00 55 1003.7
20220524224613 83 130 7.0 0.0 0.00 0.00 0.00 55 1003.7
20220524224014 84 147 7.0 0.0 0.00 0.00 0.00 54 1003.8
20220524223508 83 175 8.0 0.0 0.00 0.00 0.00 55 1003.9
20220524223006 83 144 8.0 0.0 0.00 0.00 0.00 55 1004.0
20220524222506 83 177 8.0 0.0 0.00 0.00 0.00 55 1004.1
20220524222007 84 196 8.0 0.0 0.00 0.00 0.00 55 1004.3
20220524221510 83 146 8.0 0.0 0.00 0.00 0.00 56 1004.4
20220524221105 83 146 8.0 0.0 0.00 0.00 0.00 55 1004.4
20220524220510 83 141 8.0 0.0 0.00 0.00 0.00 56 1004.5
20220524220012 83 138 8.0 0.0 0.00 0.00 0.00 55 1004.7
20220524215603 83 173 9.0 0.0 0.00 0.00 0.00 55 1004.8
20220524215004 83 146 8.0 0.0 0.00 0.00 0.00 55 1004.8
20220524214526 83 135 9.0 0.0 0.00 0.00 0.00 54 1004.9
20220524214004 84 146 9.0 0.0 0.00 0.00 0.00 54 1005.1
20220524213509 84 159 7.0 0.0 0.00 0.00 0.00 53 1005.2
20220524213011 84 169 8.0 0.0 0.00 0.00 0.00 54 1005.2
20220524212515 84 142 9.0 0.0 0.00 0.00 0.00 54 1005.3
20220524212027 84 153 8.0 0.0 0.00 0.00 0.00 53 1005.3
20220524211522 84 155 7.0 0.0 0.00 0.00 0.00 53 1005.4
20220524211011 84 132 9.0 0.0 0.00 0.00 0.00 53 1005.5
20220524210514 84 146 10.0 0.0 0.00 0.00 0.00 53 1005.6
20220524210015 84 128 9.0 0.0 0.00 0.00 0.00 53 1005.6
20220524205504 84 174 10.0 0.0 0.00 0.00 0.00 54 1005.8
20220524205008 83 125 10.0 0.0 0.00 0.00 0.00 53 1005.8
20220524204603 83 159 10.0 0.0 0.00 0.00 0.00 53 1005.8
20220524204108 84 141 10.0 0.0 0.00 0.00 0.00 53 1005.8
20220524203510 84 144 8.0 0.0 0.00 0.00 0.00 54 1005.8
20220524203010 84 119 8.0 0.0 0.00 0.00 0.00 55 1005.9
20220524202602 83 147 9.0 0.0 0.00 0.00 0.00 55 1005.9
20220524202015 83 142 8.0 0.0 0.00 0.00 0.00 54 1006.1
20220524201602 83 140 7.0 0.0 0.00 0.00 0.00 55 1006.1
20220524201000 83 152 9.0 0.0 0.00 0.00 0.00 55 1006.2
20220524200605 83 136 9.0 0.0 0.00 0.00 0.00 56 1006.2
20220524200002 84 141 7.0 0.0 0.00 0.00 0.00 56 1006.4
20220524195509 84 132 7.0 0.0 0.00 0.00 0.00 58 1006.3
20220524195016 84 138 7.0 0.0 0.00 0.00 0.00 59 1006.3
20220524194605 84 121 9.0 0.0 0.00 0.00 0.00 58 1006.4
20220524194007 84 137 9.0 0.0 0.00 0.00 0.00 59 1006.5
20220524193600 84 121 9.0 0.0 0.00 0.00 0.00 58 1006.5
20220524193110 84 139 8.0 0.0 0.00 0.00 0.00 57 1006.4
20220524192510 84 182 9.0 0.0 0.00 0.00 0.00 58 1006.3
20220524192016 84 191 8.0 0.0 0.00 0.00 0.00 58 1006.4
20220524191516 84 133 7.0 0.0 0.00 0.00 0.00 58 1006.5
20220524191105 84 136 8.0 0.0 0.00 0.00 0.00 58 1006.6
20220524190502 84 134 9.0 0.0 0.00 0.00 0.00 58 1006.6
20220524190009 84 160 8.0 0.0 0.00 0.00 0.00 56 1006.6
20220524185601 84 142 7.0 0.0 0.00 0.00 0.00 57 1006.6
20220524185005 84 123 7.0 0.0 0.00 0.00 0.00 56 1006.7
20220524184509 84 127 8.0 0.0 0.00 0.00 0.00 57 1006.7
20220524184009 84 130 9.0 0.0 0.00 0.00 0.00 57 1006.8
20220524183608 84 143 7.0 0.0 0.00 0.00 0.00 59 1006.7
20220524183005 84 133 7.0 0.0 0.00 0.00 0.00 58 1006.5
20220524182510 83 150 9.0 0.0 0.00 0.00 0.00 59 1006.7
20220524182016 83 153 9.0 0.0 0.00 0.00 0.00 58 1006.7
20220524181517 84 121 7.0 0.0 0.00 0.00 0.00 58 1006.7
20220524181003 83 147 7.0 0.0 0.00 0.00 0.00 61 1006.7
20220524180508 83 156 6.0 0.0 0.00 0.00 0.00 62 1006.7
20220524180008 83 147 9.0 0.0 0.00 0.00 0.00 63 1006.7
20220524175602 82 126 8.0 0.0 0.00 0.00 0.00 63 1006.7
20220524175006 83 161 7.0 0.0 0.00 0.00 0.00 62 1006.7
20220524174510 83 94 7.0 0.0 0.00 0.00 0.00 63 1006.9
20220524174100 82 123 7.0 0.0 0.00 0.00 0.00 64 1007.0
20220524173606 82 214 6.0 0.0 0.00 0.00 0.00 63 1007.2
20220524173106 82 162 7.0 0.0 0.00 0.00 0.00 65 1007.2
20220524172511 82 126 6.0 0.0 0.00 0.00 0.00 64 1007.2
20220524172011 82 164 6.0 0.0 0.00 0.00 0.00 66 1007.3
20220524171529 81 154 9.0 0.0 0.00 0.00 0.00 65 1007.3
20220524171107 81 149 9.0 0.0 0.00 0.00 0.00 67 1007.3
20220524170505 81 158 6.0 0.0 0.00 0.00 0.00 67 1007.5
20220524170009 81 134 6.0 0.0 0.00 0.00 0.00 68 1007.6
20220524165504 80 209 6.0 0.0 0.00 0.00 0.00 70 1007.7
20220524165011 80 126 4.0 0.0 0.00 0.00 0.00 71 1007.8
20220524164517 79 140 4.0 0.0 0.00 0.00 0.00 72 1007.9
20220524164105 80 152 4.0 0.0 0.00 0.00 0.00 72 1008.1
20220524163505 79 152 5.0 0.0 0.00 0.00 0.00 76 1008.2
20220524163009 78 132 5.0 0.0 0.00 0.00 0.00 75 1008.3
20220524162505 78 146 4.0 0.0 0.00 0.00 0.00 76 1008.4
20220524162007 78 196 3.0 0.0 0.00 0.00 0.00 78 1008.4
20220524161521 78 160 3.0 0.0 0.00 0.00 0.00 78 1008.4
20220524161012 77 196 4.0 0.0 0.00 0.00 0.00 79 1008.5
20220524160516 77 163 6.0 0.0 0.00 0.00 0.00 79 1008.5
20220524160024 77 167 6.0 0.0 0.00 0.00 0.00 79 1008.6
20220524155520 77 136 6.0 0.0 0.00 0.00 0.00 80 1008.5
20220524155023 76 134 7.0 0.0 0.00 0.00 0.00 81 1008.6
20220524154521 76 186 7.0 0.0 0.00 0.00 0.00 82 1008.6
20220524154012 76 171 7.0 0.0 0.00 0.00 0.00 82 1008.6
20220524153605 76 159 6.0 0.0 0.00 0.00 0.00 83 1008.6
20220524153006 75 126 6.0 0.0 0.00 0.00 0.00 84 1008.5
20220524152600 75 138 8.0 0.0 0.00 0.00 0.00 84 1008.6
20220524152106 75 132 9.0 0.0 0.00 0.00 0.00 84 1008.5
20220524151606 75 147 7.0 0.0 0.00 0.00 0.00 84 1008.6
20220524151006 75 142 6.0 0.0 0.00 0.00 0.00 85 1008.6
20220524150509 75 136 7.0 0.0 0.00 0.00 0.00 85 1008.6
20220524150102 75 127 7.0 0.0 0.00 0.00 0.00 85 1008.6
20220524145507 74 145 6.0 0.0 0.00 0.00 0.00 87 1008.6
20220524145105 74 138 6.0 0.0 0.00 0.00 0.00 88 1008.8
20220524144504 73 137 7.0 0.0 0.00 0.00 0.00 88 1008.8
20220524144008 73 148 8.0 0.0 0.00 0.00 0.00 88 1008.9
20220524143557 73 124 7.0 0.0 0.00 0.00 0.00 88 1008.9
20220524143000 73 148 7.0 0.0 0.00 0.00 0.00 88 1008.8
20220524142512 73 137 6.0 0.0 0.00 0.00 0.00 89 1008.9
20220524142103 73 132 6.0 0.0 0.00 0.00 0.00 89 1008.9
20220524141503 73 126 4.0 0.0 0.00 0.00 0.00 90 1008.8
20220524141057 72 147 4.0 0.0 0.00 0.00 0.00 90 1008.8
20220524140608 72 136 4.0 0.0 0.00 0.00 0.00 91 1009.0
20220524140008 72 155 4.0 0.0 0.00 0.00 0.00 91 1008.9
20220524135558 72 137 3.0 0.0 0.00 0.00 0.00 92 1009.0
20220524135046 71 152 4.0 0.0 0.00 0.00 0.00 92 1008.9
20220524134549 71 134 5.0 0.0 0.00 0.00 0.00 92 1008.8
20220524134041 71 154 5.0 0.0 0.00 0.00 0.00 92 1008.7
20220524133548 71 118 5.0 0.0 0.00 0.00 0.00 92 1008.7
20220524133049 71 139 5.0 0.0 0.00 0.00 0.00 92 1008.8
20220524132559 70 151 4.0 0.0 0.00 0.00 0.00 93 1008.7
20220524132057 70 144 4.0 0.0 0.00 0.00 0.00 93 1008.6
20220524131507 70 137 4.0 0.0 0.00 0.00 0.00 92 1008.6
20220524131009 70 130 3.0 0.0 0.00 0.00 0.00 92 1008.5
20220524130602 70 140 2.0 0.0 0.00 0.00 0.00 92 1008.4
20220524130052 70 129 3.0 0.0 0.00 0.00 0.00 92 1008.4
20220524125555 70 138 3.0 0.0 0.00 0.00 0.00 93 1008.2
20220524125002 70 63 3.0 0.0 0.00 0.00 0.00 93 1008.2
20220524124504 70 84 3.0 0.0 0.00 0.00 0.00 93 1008.1
20220524124101 70 123 3.0 0.0 0.00 0.00 0.00 93 1008.1
20220524123502 70 113 2.0 0.0 0.00 0.00 0.00 93 1008.1
20220524123004 69 113 2.0 0.0 0.00 0.00 0.00 93 1008.3
20220524122557 69 91 2.0 0.0 0.00 0.00 0.00 93 1008.2
20220524122100 69 114 3.0 0.0 0.00 0.00 0.00 93 1008.3
20220524121507 69 113 3.0 0.0 0.00 0.00 0.00 93 1008.2
20220524121008 69 94 3.0 0.0 0.00 0.00 0.00 93 1008.3
20220524120602 69 83 3.0 0.0 0.00 0.00 0.00 93 1008.3
20220524120005 69 106 3.0 0.0 0.00 0.00 0.00 93 1008.2
20220524115507 69 94 3.0 0.0 0.00 0.00 0.00 93 1008.1
20220524115102 69 135 3.0 0.0 0.00 0.00 0.00 93 1008.0
20220524114615 69 115 3.0 0.0 0.00 0.00 0.00 92 1008.0
20220524114005 69 96 2.0 0.0 0.00 0.00 0.00 92 1008.4
20220524113559 69 119 2.0 0.0 0.00 0.00 0.00 93 1008.5
20220524113005 69 123 2.0 0.0 0.00 0.00 0.00 93 1008.7
20220524112557 69 73 2.0 0.0 0.00 0.00 0.00 93 1008.7
20220524112101 69 126 2.0 0.0 0.00 0.00 0.00 93 1008.9
20220524111609 69 124 2.0 0.0 0.00 0.00 0.00 93 1008.8
20220524111050 69 123 2.0 0.0 0.00 0.00 0.00 92 1008.9
20220524110605 69 110 1.0 0.0 0.00 0.00 0.00 92 1008.8
20220524110104 69 109 1.0 0.0 0.00 0.00 0.00 92 1009.0
20220524105504 69 109 1.0 0.0 0.00 0.00 0.00 92 1009.0
20220524105008 69 109 1.0 0.0 0.00 0.00 0.00 92 1009.1
20220524104605 69 109 1.0 0.0 0.00 0.00 0.00 92 1009.3
20220524104003 69 120 1.0 0.0 0.00 0.00 0.00 92 1009.3
20220524103506 69 116 1.0 0.0 0.00 0.00 0.00 92 1009.3
20220524103012 70 116 2.0 0.0 0.00 0.00 0.00 92 1009.2
20220524102513 70 125 1.0 0.0 0.00 0.00 0.00 92 1009.4
20220524102003 70 132 1.0 0.0 0.00 0.00 0.00 92 1009.6
20220524101515 70 132 1.0 0.0 0.00 0.00 0.00 92 1009.7
20220524101016 70 132 1.0 0.0 0.00 0.00 0.00 92 1009.7
20220524100608 70 132 0.0 0.0 0.00 0.00 0.00 92 1009.8
20220524100013 70 132 1.0 0.0 0.00 0.00 0.00 92 1009.8
20220524095603 70 132 2.0 0.0 0.00 0.00 0.00 92 1009.8
20220524095008 70 137 2.0 0.0 0.00 0.00 0.00 91 1009.9
20220524094607 70 133 2.0 0.0 0.00 0.00 0.00 91 1010.1
20220524094001 70 130 1.0 0.0 0.00 0.00 0.00 91 1010.2
20220524093508 70 134 1.0 0.0 0.00 0.00 0.00 91 1010.1
20220524093057 70 135 2.0 0.0 0.00 0.00 0.00 91 1010.1
20220524092500 70 123 2.0 0.0 0.00 0.00 0.00 91 1010.2
20220524092001 70 155 3.0 0.0 0.00 0.00 0.00 91 1010.3
20220524091513 70 138 3.0 0.0 0.00 0.00 0.00 91 1010.4
20220524091013 70 115 4.0 0.0 0.00 0.00 0.00 91 1010.3
20220524090610 70 136 4.0 0.0 0.00 0.00 0.00 91 1010.3
20220524090007 70 146 3.0 0.0 0.00 0.00 0.00 91 1010.1
20220524085604 70 128 2.0 0.0 0.00 0.00 0.00 91 1010.0
20220524085007 70 127 4.0 0.0 0.00 0.00 0.00 91 1010.0
20220524084512 70 132 3.0 0.0 0.00 0.00 0.00 91 1009.9
20220524084013 70 134 3.0 0.0 0.00 0.00 0.00 91 1009.9
20220524083522 70 135 3.0 0.0 0.00 0.00 0.00 91 1009.9
20220524083014 70 101 3.0 0.0 0.00 0.00 0.00 91 1009.8
20220524082505 70 125 4.0 0.0 0.00 0.00 0.00 90 1009.5
20220524082012 71 119 5.0 0.0 0.00 0.00 0.00 90 1009.6
20220524081610 71 120 5.0 0.0 0.00 0.00 0.00 90 1009.6
20220524081107 71 124 5.0 0.0 0.00 0.00 0.00 90 1009.7
20220524080508 71 64 3.0 0.0 0.00 0.00 0.00 90 1009.8
20220524080113 71 120 3.0 0.0 0.00 0.00 0.00 90 1009.8
20220524075502 71 138 5.0 0.0 0.00 0.00 0.00 90 1009.8
20220524075000 71 140 6.0 0.0 0.00 0.00 0.00 89 1009.7
20220524074508 71 130 5.0 0.0 0.00 0.00 0.00 89 1009.9